ROMMA est une association bénévole à but non lucratif. Votre soutien est indispensable : ADHERER à ROMMA ou FAIRE un DON

Le Versoud - (38, Isère)

Vallée du Grésivaudan (220 m)   Longitude: 05° 51' 44" E   Latitude: 45° 13' 06" N Station partenaire n°6
 

Détail journalier du     <<     >>

Température Humidité Pression Vent Dir Rafale Dir. rafale Ensol.
Heure (°C) (%) (hPa) (km/h) (km/h) (min)
01:00 12.996102100---0
02:00 12.896102100---0
03:00 12.896102100---0
04:00 12.796102100---0
05:00 12.696102000---0
06:00 12.497102000---0
07:00 12.597102000---0
08:00 12.696102100---0
09:00 12.797102100---0
10:00 13.097102100---0
11:00 13.796102200---0
12:00 15.092102102S15
13:00 16.3861020011NE0
14:00 17.27910191NE19NE0
15:00 17.87610182NE19NE40
16:00 17.57710171ENE16NE0
17:00 17.37810171NE15NE0
18:00 16.9801017011ENE5
19:00 15.9861017010NNE10
20:00 15.190101800---0
21:00 14.791101700---0
22:00 14.791101702ENE0
23:00 14.192101700---0
minuit 14.289101600---0

Graphique du 22-10-2019

 

Serveur OMMA